Aeroporto :
LOGIN :

Iscrizione | Disclaimer

   EN    FR    IT 

 










Sommario :    VFR   VFR Marginale   IFR   IFR Intensivo   IFR Molto Intensivo
Visibilità : 
Base nubi : 
>= 8 km
>= 3000ft
5 / 8 km
1000 / 3000 ft
1500m / 5 km
500 / 1000 ft
800 / 1500m
200 / 500 ft
< 800m
< 200 ft
Simboli :   Temporali  Nebbia  Neve Forte  Precipitazioni Forti  Vento > 20 kt
SIGMETs :   Varie  Temporali  Ghiacco  Turbolenza  Onda orograficha  Ceneri Vulcaniche







- Altitudine del aeroporto : 218 ft
- Codice IATA : LBG
- Carte del aeroporto


LFPB - Paris / Le Bourget

ULTIMO METAR :
  • 201230Z AUTO 16008KT 130V190 9999 FEW028 12/06 Q1024 NOSIG

METARs OBSOLETI :
  • 201200Z AUTO 18007KT 150V220 9999 FEW024 12/06 Q1024 NOSIG
  • 201130Z AUTO VRB03KT 8000 NSC 11/05 Q1024 NOSIG
  • 201100Z AUTO VRB02KT 5000 BR NSC 09/05 Q1024 NOSIG
  • 201030Z AUTO VRB02KT 5000 BR NSC 08/06 Q1024 NOSIG
  • 201000Z AUTO VRB01KT 5000 BR FEW032 06/05 Q1024 TEMPO 0800 BCFG BKN001

TAF TAF LFPB
Valido dal 20 a 12 ore il 21 a 12 ore UTC


201100Z 2012/2112 18005KT 6000 NSW FEW020
PROB30
TEMPO 2019/2021 BKN012
BECMG 2100/2102 3000 BR
TEMPO 2102/2111 0700 BCFG BKN001
PROB40
TEMPO 2102/2109 0300 FG VV///
BECMG 2109/2111 6000 NSW
ATIS : +33 1 48 62 43 92
Nessun NOTAM noto per questo aeroporto.



MetMap, La meteo Aeronautica in un colpo d'occhio ! - Copyright ORBIFLY Dicembre 2007 - Disclaimer

ORBIFLY MET'MAP TEAM :

Programmazione e sviluppo : Alexandra Zaïnal
Concezione e sviluppo : Baudouin d'Aumeries
Co-Programmazione e sviluppo : Marc-Olivier Méhu
Supporto tecnico e logistico : Manuel Goepfert
Aiuto per la traduzione : Arnaldo La Scala

Contatto : metmap@orbifly.com




FONTI E CREDITI :

   NOAA